Time;durP1;ratioP1;P1;durP2;ratioP2;P2;SDS_P1;SDS_P2;PMS_P1;PMS_P2;Temp;Humidity;BMP_temperature;BMP_pressure;BME280_temperature;BME280_humidity;BME280_pressure;Samples;Min_cycle;Max_cycle;Signal;HPM_P1;HPM_P2
2021/11/24 00:00:16;;;;;;;31.57;19.40;;;8.30;99.90;;;;;;5011480;28;20434;-37
2021/11/24 00:02:42;;;;;;;29.43;18.20;;;8.20;99.90;;;;;;5021188;28;20485;-37
2021/11/24 00:05:08;;;;;;;33.67;18.90;;;8.20;99.90;;;;;;5017032;28;20433;-37
2021/11/24 00:07:33;;;;;;;29.73;19.20;;;8.30;99.90;;;;;;5011320;28;20187;-37
2021/11/24 00:09:59;;;;;;;31.27;21.27;;;8.20;99.90;;;;;;5009675;28;20192;-37
2021/11/24 00:12:25;;;;;;;36.07;20.10;;;8.30;99.90;;;;;;5020363;28;20195;-37
2021/11/24 00:14:51;;;;;;;39.33;21.47;;;8.20;99.90;;;;;;5009098;28;20198;-37
2021/11/24 00:17:17;;;;;;;31.07;19.37;;;8.20;99.90;;;;;;5010959;28;20190;-37
2021/11/24 00:19:43;;;;;;;35.33;19.17;;;8.20;99.90;;;;;;5016402;28;20266;-37
2021/11/24 00:22:09;;;;;;;34.90;19.43;;;8.00;99.90;;;;;;5020286;28;20822;-37
2021/11/24 00:24:35;;;;;;;33.87;18.97;;;8.20;99.90;;;;;;5008741;28;20920;-37
2021/11/24 00:27:00;;;;;;;39.63;21.93;;;8.10;99.90;;;;;;5015576;28;20191;-37
2021/11/24 00:29:26;;;;;;;34.80;20.60;;;8.00;99.90;;;;;;5009584;28;20246;-37
2021/11/24 00:31:52;;;;;;;37.10;20.10;;;8.10;99.90;;;;;;5007732;28;20198;-37
2021/11/24 00:34:17;;;;;;;42.40;21.13;;;8.00;99.90;;;;;;5019559;28;20791;-36
2021/11/24 00:36:43;;;;;;;41.70;21.27;;;7.90;99.90;;;;;;5022923;28;20190;-37
2021/11/24 00:39:09;;;;;;;41.90;21.47;;;7.90;99.90;;;;;;5015312;28;20191;-37
2021/11/24 00:41:34;;;;;;;38.77;19.67;;;7.90;99.90;;;;;;5012067;28;20261;-37
2021/11/24 00:44:00;;;;;;;39.73;21.10;;;8.00;99.90;;;;;;5009759;28;20611;-37
2021/11/24 00:46:26;;;;;;;42.67;20.60;;;8.20;99.90;;;;;;5028224;28;20689;-37
2021/11/24 00:48:51;;;;;;;45.60;20.90;;;7.90;99.90;;;;;;5022187;28;20187;-37
2021/11/24 00:51:17;;;;;;;48.73;20.90;;;8.20;99.90;;;;;;5020141;28;20190;-37
2021/11/24 00:53:43;;;;;;;45.37;22.10;;;8.10;99.90;;;;;;5007261;28;20265;-36
2021/11/24 00:56:08;;;;;;;42.10;21.30;;;8.00;99.90;;;;;;5013689;28;20226;-37
2021/11/24 00:58:34;;;;;;;41.00;21.00;;;7.90;99.90;;;;;;5014197;28;20659;-37
2021/11/24 01:01:00;;;;;;;40.30;21.63;;;7.90;99.90;;;;;;5009117;28;20238;-37
2021/11/24 01:03:26;;;;;;;43.10;21.53;;;7.70;99.90;;;;;;5016006;28;20190;-37
2021/11/24 01:05:52;;;;;;;44.53;21.73;;;7.90;99.90;;;;;;5014931;28;20743;-37
2021/11/24 01:08:18;;;;;;;44.33;21.10;;;7.90;99.90;;;;;;5012964;28;20426;-37
2021/11/24 01:10:45;;;;;;;45.03;23.13;;;7.90;99.90;;;;;;5009596;28;20425;-37
2021/11/24 01:13:13;;;;;;;50.10;22.43;;;8.00;99.90;;;;;;5014163;28;20182;-37
2021/11/24 01:15:39;;;;;;;46.83;22.50;;;8.00;99.90;;;;;;5008701;28;20475;-37
2021/11/24 01:18:05;;;;;;;48.53;23.57;;;7.90;99.90;;;;;;5014263;28;20429;-37
2021/11/24 01:20:31;;;;;;;48.20;25.03;;;7.90;99.90;;;;;;5022874;28;20418;-37
2021/11/24 01:22:57;;;;;;;55.17;24.93;;;7.80;99.90;;;;;;5025394;28;20421;-37
2021/11/24 01:25:23;;;;;;;52.00;22.93;;;7.90;99.90;;;;;;5008748;28;20437;-37
2021/11/24 01:27:49;;;;;;;57.03;24.57;;;7.80;99.90;;;;;;5011847;28;20418;-37
2021/11/24 01:30:15;;;;;;;60.47;24.23;;;7.90;99.90;;;;;;5008552;28;20334;-37
2021/11/24 01:32:41;;;;;;;53.43;22.67;;;7.80;99.90;;;;;;5010500;28;20438;-37
2021/11/24 01:35:08;;;;;;;50.10;21.70;;;8.00;99.90;;;;;;5018019;28;20808;-37
2021/11/24 01:37:34;;;;;;;46.30;21.90;;;7.80;99.90;;;;;;5020335;28;20440;-37
2021/11/24 01:40:03;;;;;;;52.23;23.20;;;8.00;99.90;;;;;;5008261;28;20422;-37
2021/11/24 01:42:28;;;;;;;58.23;25.70;;;7.80;99.90;;;;;;5020282;28;20722;-37
2021/11/24 01:44:55;;;;;;;53.10;23.80;;;7.80;99.90;;;;;;5015852;28;20590;-37
2021/11/24 01:47:21;;;;;;;54.33;23.77;;;7.70;99.90;;;;;;5025909;28;20190;-37
2021/11/24 01:49:48;;;;;;;46.17;24.07;;;8.00;99.90;;;;;;5017719;28;20440;-37
2021/11/24 01:52:14;;;;;;;56.80;25.40;;;7.90;99.90;;;;;;5017369;28;20509;-37
2021/11/24 01:54:41;;;;;;;50.67;23.43;;;8.00;99.90;;;;;;4994744;28;20925;-37
2021/11/24 01:57:07;;;;;;;46.20;22.63;;;7.90;99.90;;;;;;5015801;28;20508;-37
2021/11/24 01:59:32;;;;;;;53.87;24.70;;;7.80;99.90;;;;;;5007801;28;20426;-37
2021/11/24 02:01:58;;;;;;;51.40;23.33;;;8.00;99.90;;;;;;5007616;28;20464;-36
2021/11/24 02:04:24;;;;;;;54.27;24.60;;;8.10;99.90;;;;;;5017168;28;20194;-37
2021/11/24 02:06:51;;;;;;;59.10;22.73;;;7.90;99.90;;;;;;5018628;28;20269;-37
2021/11/24 02:09:17;;;;;;;55.00;23.87;;;8.00;99.90;;;;;;5019226;28;20422;-37
2021/11/24 02:11:44;;;;;;;52.63;24.43;;;8.10;99.90;;;;;;5011125;28;20512;-37
2021/11/24 02:14:12;;;;;;;54.53;23.73;;;8.00;99.90;;;;;;5007637;28;20429;-37
2021/11/24 02:16:46;;;;;;;51.90;23.70;;;7.80;99.90;;;;;;5006143;28;20436;-37
2021/11/24 02:19:13;;;;;;;59.63;24.60;;;7.70;99.90;;;;;;5017392;28;20970;-37
2021/11/24 02:21:43;;;;;;;52.33;23.73;;;7.90;99.90;;;;;;5020838;28;20996;-37
2021/11/24 02:24:09;;;;;;;56.23;23.40;;;8.00;99.90;;;;;;5014705;28;20792;-37
2021/11/24 02:26:34;;;;;;;51.43;23.80;;;7.80;99.90;;;;;;5010364;28;20429;-37
2021/11/24 02:29:01;;;;;;;54.47;25.10;;;7.90;99.90;;;;;;5016741;28;20218;-37
2021/11/24 02:31:27;;;;;;;58.77;25.03;;;7.90;99.90;;;;;;5007416;28;20277;-36
2021/11/24 02:33:57;;;;;;;55.53;23.40;;;7.60;99.90;;;;;;5006741;28;20441;-37
2021/11/24 02:36:24;;;;;;;53.50;23.17;;;7.60;99.90;;;;;;5008562;28;20422;-37
2021/11/24 02:38:51;;;;;;;55.67;23.37;;;7.50;99.90;;;;;;5009104;28;20477;-37
2021/11/24 02:41:17;;;;;;;62.30;24.27;;;7.60;99.90;;;;;;5007148;28;20991;-37
2021/11/24 02:43:43;;;;;;;57.70;25.00;;;7.60;99.90;;;;;;5015450;28;20469;-37
2021/11/24 02:46:09;;;;;;;59.03;24.30;;;7.60;99.90;;;;;;5025627;28;20421;-37
2021/11/24 02:48:35;;;;;;;58.60;25.30;;;7.70;99.90;;;;;;5026371;28;20821;-37
2021/11/24 02:51:02;;;;;;;56.50;22.40;;;7.60;99.90;;;;;;5013360;28;20430;-37
2021/11/24 02:53:33;;;;;;;58.73;25.57;;;7.90;99.90;;;;;;5024847;28;20190;-37
2021/11/24 02:56:00;;;;;;;53.33;24.20;;;7.80;99.90;;;;;;5007861;28;20780;-37
2021/11/24 02:58:26;;;;;;;53.60;24.23;;;7.80;99.90;;;;;;5009555;28;20491;-37
2021/11/24 03:00:53;;;;;;;57.33;25.23;;;7.90;99.90;;;;;;5007341;28;20430;-37
2021/11/24 03:03:18;;;;;;;55.97;24.37;;;7.60;99.90;;;;;;5008569;28;20445;-37
2021/11/24 03:05:45;;;;;;;54.50;24.77;;;7.50;99.90;;;;;;5016965;28;20425;-37
2021/11/24 03:08:11;;;;;;;62.60;25.73;;;7.40;99.90;;;;;;5017488;28;20219;-37
2021/11/24 03:10:37;;;;;;;61.63;24.70;;;7.40;99.90;;;;;;5009339;28;20422;-37
2021/11/24 03:13:03;;;;;;;55.17;25.70;;;7.90;99.90;;;;;;5022654;28;20511;-37
2021/11/24 03:15:30;;;;;;;60.10;25.80;;;7.60;99.90;;;;;;5011298;28;20195;-37
2021/11/24 03:17:56;;;;;;;58.40;25.20;;;7.70;99.90;;;;;;5009589;28;20434;-37
2021/11/24 03:20:25;;;;;;;51.57;23.07;;;7.70;99.90;;;;;;5021739;28;20512;-37
2021/11/24 03:22:51;;;;;;;62.73;25.43;;;7.60;99.90;;;;;;5017703;28;20490;-37
2021/11/24 03:25:17;;;;;;;56.37;24.87;;;7.50;99.90;;;;;;5010804;28;20569;-37
2021/11/24 03:27:43;;;;;;;48.37;22.80;;;7.60;99.90;;;;;;5019812;28;20504;-37
2021/11/24 03:30:19;;;;;;;54.27;23.60;;;7.50;99.90;;;;;;5010729;28;20473;-37
2021/11/24 03:32:45;;;;;;;61.53;24.50;;;7.40;99.90;;;;;;5010159;28;20467;-37
2021/11/24 03:35:11;;;;;;;61.30;24.57;;;7.60;99.90;;;;;;5026372;28;20428;-37
2021/11/24 03:37:37;;;;;;;56.13;25.30;;;7.40;99.90;;;;;;5024033;28;20429;-37
2021/11/24 03:40:06;;;;;;;59.43;25.60;;;7.40;99.90;;;;;;5010340;28;20696;-37
2021/11/24 03:42:33;;;;;;;59.17;25.43;;;7.40;99.90;;;;;;5015293;28;20475;-36
2021/11/24 03:45:00;;;;;;;67.47;26.97;;;7.30;99.90;;;;;;5019195;28;20786;-37
2021/11/24 03:47:25;;;;;;;64.50;24.50;;;7.50;99.90;;;;;;5028757;28;20494;-37
2021/11/24 03:49:51;;;;;;;60.77;25.67;;;7.30;99.90;;;;;;5025109;28;20997;-37
2021/11/24 03:52:17;;;;;;;54.40;24.17;;;7.30;99.90;;;;;;5023322;28;20330;-37
2021/11/24 03:54:43;;;;;;;60.43;25.90;;;7.40;99.90;;;;;;5018927;28;20232;-37
2021/11/24 03:57:08;;;;;;;69.07;26.63;;;7.50;99.90;;;;;;5010857;28;20562;-37
2021/11/24 03:59:34;;;;;;;60.37;25.80;;;7.30;99.90;;;;;;5009908;28;20203;-37
2021/11/24 04:02:00;;;;;;;57.47;24.70;;;7.40;99.90;;;;;;5010158;28;20222;-37
2021/11/24 04:04:26;;;;;;;64.53;24.37;;;7.60;99.90;;;;;;5012812;28;20696;-37
2021/11/24 04:06:51;;;;;;;56.60;24.83;;;7.40;99.90;;;;;;5020055;28;20187;-37
2021/11/24 04:09:18;;;;;;;56.70;25.00;;;7.30;99.90;;;;;;5015219;28;20191;-37
2021/11/24 04:11:43;;;;;;;52.60;24.70;;;7.40;99.90;;;;;;5010128;28;20268;-37
2021/11/24 04:14:10;;;;;;;52.10;28.07;;;7.40;99.90;;;;;;5019736;28;20513;-37
2021/11/24 04:16:35;;;;;;;68.60;25.10;;;7.50;99.90;;;;;;5009785;28;20207;-37
2021/11/24 04:19:02;;;;;;;48.77;23.00;;;7.70;99.90;;;;;;5013360;28;20707;-37
2021/11/24 04:21:28;;;;;;;67.40;24.50;;;7.60;99.90;;;;;;5016230;28;20579;-37
2021/11/24 04:23:54;;;;;;;56.97;23.57;;;7.40;99.90;;;;;;5016074;28;20425;-37
2021/11/24 04:26:19;;;;;;;50.67;25.30;;;7.30;99.90;;;;;;5009467;28;20426;-37
2021/11/24 04:28:45;;;;;;;58.77;24.90;;;7.20;99.90;;;;;;5014810;28;20194;-37
2021/11/24 04:31:11;;;;;;;54.00;24.13;;;7.60;99.90;;;;;;5009528;28;20195;-37
2021/11/24 04:33:37;;;;;;;61.43;23.57;;;7.30;99.90;;;;;;5009283;28;20617;-37
2021/11/24 04:36:04;;;;;;;55.47;24.07;;;7.50;99.90;;;;;;5022808;28;20207;-37
2021/11/24 04:38:30;;;;;;;53.83;23.10;;;7.40;99.90;;;;;;5025676;28;20421;-37
2021/11/24 04:40:55;;;;;;;60.80;25.43;;;7.60;99.90;;;;;;5012803;28;20844;-37
2021/11/24 04:43:25;;;;;;;49.00;22.73;;;7.30;99.90;;;;;;5010238;28;20199;-37
2021/11/24 04:45:51;;;;;;;52.40;24.40;;;7.20;99.90;;;;;;5025545;28;20429;-37
2021/11/24 04:48:17;;;;;;;61.70;25.10;;;7.30;99.90;;;;;;5028947;28;20436;-37
2021/11/24 04:50:42;;;;;;;66.27;24.37;;;7.30;99.90;;;;;;5016836;28;20197;-37
2021/11/24 04:53:08;;;;;;;55.30;24.50;;;7.20;99.90;;;;;;5020246;28;20295;-37
2021/11/24 04:55:34;;;;;;;58.60;24.67;;;7.20;99.90;;;;;;5012587;28;20226;-37
2021/11/24 04:58:00;;;;;;;58.37;23.57;;;7.10;99.90;;;;;;5015612;28;20206;-37
2021/11/24 05:00:25;;;;;;;55.40;23.63;;;7.40;99.90;;;;;;5012418;28;20259;-37
2021/11/24 05:02:52;;;;;;;51.30;23.77;;;7.30;99.90;;;;;;5008186;28;20465;-37
2021/11/24 05:05:21;;;;;;;61.60;23.80;;;7.30;99.90;;;;;;5008303;28;20614;-37
2021/11/24 05:07:47;;;;;;;50.60;22.53;;;7.40;99.90;;;;;;5017346;28;20421;-37
2021/11/24 05:10:13;;;;;;;55.33;23.33;;;7.10;99.90;;;;;;5008870;28;20799;-37
2021/11/24 05:12:39;;;;;;;53.97;24.80;;;7.10;99.90;;;;;;5011550;28;20784;-37
2021/11/24 05:15:07;;;;;;;54.37;25.00;;;7.20;99.90;;;;;;5011572;28;20488;-37
2021/11/24 05:17:33;;;;;;;61.27;24.93;;;7.40;99.90;;;;;;5008475;28;20203;-37
2021/11/24 05:20:00;;;;;;;66.10;24.90;;;7.40;99.90;;;;;;5016020;28;20437;-37
2021/11/24 05:22:26;;;;;;;67.67;26.47;;;7.20;99.90;;;;;;5013766;28;20300;-37
2021/11/24 05:24:52;;;;;;;56.40;25.30;;;7.10;99.90;;;;;;5012697;28;20434;-37
2021/11/24 05:27:19;;;;;;;55.63;26.20;;;7.30;99.90;;;;;;5008539;28;20452;-37
2021/11/24 05:29:45;;;;;;;65.87;28.30;;;7.20;99.90;;;;;;5010181;28;20424;-37
2021/11/24 05:32:11;;;;;;;66.43;26.33;;;7.20;99.90;;;;;;5008804;28;20445;-37
2021/11/24 05:34:36;;;;;;;62.83;25.77;;;7.40;99.90;;;;;;5007320;28;20434;-37
2021/11/24 05:37:03;;;;;;;61.17;26.90;;;7.30;99.90;;;;;;5014774;28;20565;-37
2021/11/24 05:39:29;;;;;;;55.73;26.30;;;7.20;99.90;;;;;;5014060;28;20211;-37
2021/11/24 05:41:54;;;;;;;56.13;26.20;;;7.30;99.90;;;;;;5014015;28;20820;-38
2021/11/24 05:44:23;;;;;;;50.67;24.10;;;7.30;99.90;;;;;;5016633;28;20434;-37
2021/11/24 05:46:57;;;;;;;54.73;24.33;;;7.30;99.90;;;;;;5021872;28;20190;-37
2021/11/24 05:49:24;;;;;;;52.20;24.50;;;7.30;99.90;;;;;;5015914;28;20526;-37
2021/11/24 05:51:54;;;;;;;50.83;21.50;;;7.50;99.90;;;;;;5017461;28;20445;-37
2021/11/24 05:54:19;;;;;;;57.47;23.43;;;7.30;99.90;;;;;;5012284;28;20434;-38
2021/11/24 05:56:45;;;;;;;59.97;24.97;;;7.40;99.90;;;;;;5008132;28;20456;-37
2021/11/24 05:59:15;;;;;;;57.13;24.03;;;7.30;99.90;;;;;;5014422;28;20828;-37
2021/11/24 06:01:41;;;;;;;53.53;24.63;;;7.30;99.90;;;;;;5007598;28;20469;-37
2021/11/24 06:04:07;;;;;;;51.80;23.40;;;7.30;99.90;;;;;;5005838;28;20517;-37
2021/11/24 06:06:34;;;;;;;53.10;25.40;;;7.30;99.90;;;;;;5022519;28;20524;-37
2021/11/24 06:09:00;;;;;;;55.70;25.43;;;7.30;99.90;;;;;;5022851;28;20202;-37
2021/11/24 06:11:25;;;;;;;59.83;24.33;;;7.40;99.90;;;;;;5014865;28;20429;-37
2021/11/24 06:13:51;;;;;;;54.83;22.90;;;7.50;99.90;;;;;;5010648;28;20959;-37
2021/11/24 06:16:17;;;;;;;49.90;23.63;;;7.70;99.90;;;;;;5007177;28;20282;-37
2021/11/24 06:18:43;;;;;;;48.93;24.10;;;7.40;99.90;;;;;;5007693;28;20509;-37
2021/11/24 06:21:09;;;;;;;54.47;22.93;;;7.40;99.90;;;;;;5013660;28;20400;-37
2021/11/24 06:23:39;;;;;;;53.93;22.47;;;7.40;99.90;;;;;;5019911;28;20179;-37
2021/11/24 06:26:06;;;;;;;50.73;22.60;;;7.20;99.90;;;;;;5018580;28;20194;-37
2021/11/24 06:28:32;;;;;;;55.90;23.10;;;7.50;99.90;;;;;;5039829;28;20433;-37
2021/11/24 06:30:58;;;;;;;52.47;23.23;;;7.30;99.90;;;;;;5013631;28;20425;-37
2021/11/24 06:33:23;;;;;;;48.70;22.50;;;7.40;99.90;;;;;;5006855;28;20845;-37
2021/11/24 06:35:49;;;;;;;57.90;24.67;;;7.40;99.90;;;;;;5010925;28;20187;-37
2021/11/24 06:38:15;;;;;;;52.63;23.17;;;7.30;99.90;;;;;;5016291;28;20530;-37
2021/11/24 06:40:41;;;;;;;60.30;23.90;;;7.30;99.90;;;;;;5010198;28;20186;-37
2021/11/24 06:43:06;;;;;;;51.20;23.93;;;7.60;99.90;;;;;;5008396;28;20215;-37
2021/11/24 06:45:32;;;;;;;52.27;24.80;;;7.50;99.90;;;;;;5028932;28;20459;-37
2021/11/24 06:47:58;;;;;;;51.97;22.43;;;7.70;99.90;;;;;;5020507;28;20191;-36
2021/11/24 06:50:24;;;;;;;60.33;25.03;;;7.60;99.90;;;;;;5032736;28;20370;-37
2021/11/24 06:52:49;;;;;;;57.83;25.70;;;7.60;99.90;;;;;;5023600;28;20269;-37
2021/11/24 06:55:15;;;;;;;59.40;23.83;;;7.50;99.90;;;;;;5030439;28;20419;-37
2021/11/24 06:57:41;;;;;;;82.80;27.90;;;7.70;99.90;;;;;;5019263;28;20195;-37
2021/11/24 07:00:08;;;;;;;57.03;24.50;;;7.70;99.90;;;;;;5014452;28;20190;-37
2021/11/24 07:02:34;;;;;;;51.17;23.93;;;7.60;99.90;;;;;;5010819;28;20519;-37
2021/11/24 07:05:00;;;;;;;53.57;23.83;;;7.70;99.90;;;;;;5014280;28;20441;-37
2021/11/24 07:07:26;;;;;;;52.47;23.27;;;7.40;99.90;;;;;;5026139;28;21106;-37
2021/11/24 07:09:51;;;;;;;53.37;23.37;;;7.40;99.90;;;;;;5017945;28;20237;-37
2021/11/24 07:12:19;;;;;;;51.70;24.40;;;7.30;99.90;;;;;;5022051;28;20289;-37
2021/11/24 07:14:45;;;;;;;53.70;25.70;;;7.40;99.90;;;;;;5030457;28;20190;-37
2021/11/24 07:17:11;;;;;;;68.00;24.07;;;7.50;99.90;;;;;;5020146;28;20449;-37
2021/11/24 07:19:38;;;;;;;53.00;23.83;;;7.30;99.90;;;;;;5018675;28;20472;-37
2021/11/24 07:22:04;;;;;;;53.80;23.20;;;7.50;99.90;;;;;;5014605;28;20211;-37
2021/11/24 07:24:30;;;;;;;49.50;23.07;;;7.40;99.90;;;;;;5014983;28;20817;-37
2021/11/24 07:26:56;;;;;;;55.47;24.00;;;7.40;99.90;;;;;;5010197;28;20253;-37
2021/11/24 07:29:22;;;;;;;53.43;24.87;;;7.50;99.90;;;;;;5020015;28;20429;-37
2021/11/24 07:31:48;;;;;;;51.30;24.50;;;7.50;99.90;;;;;;5009335;28;20278;-37
2021/11/24 07:34:14;;;;;;;52.60;24.30;;;7.70;99.90;;;;;;5008076;28;20685;-37
2021/11/24 07:36:41;;;;;;;50.43;24.10;;;7.70;99.90;;;;;;5009734;28;20516;-37
2021/11/24 07:39:06;;;;;;;54.67;22.93;;;7.90;99.90;;;;;;5022859;28;20416;-37
2021/11/24 07:41:32;;;;;;;71.87;25.03;;;7.70;99.90;;;;;;5038071;28;20466;-37
2021/11/24 07:43:58;;;;;;;60.67;24.20;;;7.60;99.90;;;;;;5028989;28;20179;-37
2021/11/24 07:46:23;;;;;;;58.57;25.87;;;7.60;99.90;;;;;;5030204;28;20218;-37
2021/11/24 07:48:49;;;;;;;111.43;28.43;;;7.50;99.90;;;;;;5027674;28;20182;-37
2021/11/24 07:51:17;;;;;;;55.53;22.87;;;7.50;99.90;;;;;;5013222;28;20190;-37
2021/11/24 07:53:44;;;;;;;59.10;25.30;;;7.40;99.90;;;;;;5022266;28;20309;-37
2021/11/24 07:56:10;;;;;;;67.37;27.00;;;7.30;99.90;;;;;;5010811;28;20444;-37
2021/11/24 07:58:36;;;;;;;54.70;25.47;;;7.20;99.90;;;;;;5010682;28;20429;-37
2021/11/24 08:01:02;;;;;;;67.10;26.40;;;7.30;99.90;;;;;;5009499;28;20928;-37
2021/11/24 08:03:27;;;;;;;56.10;25.40;;;7.50;99.90;;;;;;5008707;28;20194;-37
2021/11/24 08:05:53;;;;;;;96.53;25.60;;;7.40;99.90;;;;;;5015093;28;20198;-37
2021/11/24 08:08:19;;;;;;;59.10;25.00;;;7.40;99.90;;;;;;5019337;28;20276;-37
2021/11/24 08:10:44;;;;;;;59.07;24.83;;;7.60;99.90;;;;;;5031382;28;20190;-37
2021/11/24 08:13:10;;;;;;;57.80;22.90;;;7.40;99.90;;;;;;5028543;28;20190;-37
2021/11/24 08:15:35;;;;;;;83.20;26.70;;;7.40;99.90;;;;;;5009593;28;20188;-37
2021/11/24 08:18:01;;;;;;;56.33;23.17;;;7.60;99.90;;;;;;5008428;28;20273;-37
2021/11/24 08:20:27;;;;;;;51.43;23.37;;;7.60;99.90;;;;;;5011644;28;20421;-37
2021/11/24 08:22:53;;;;;;;44.80;19.40;;;7.70;99.90;;;;;;5017908;28;20306;-37
2021/11/24 08:25:19;;;;;;;42.63;19.43;;;7.40;99.90;;;;;;5013337;28;20540;-37
2021/11/24 08:27:44;;;;;;;44.27;19.67;;;7.50;99.90;;;;;;5009496;28;20392;-37
2021/11/24 08:30:10;;;;;;;46.47;20.10;;;7.60;99.90;;;;;;5015319;28;20183;-36
2021/11/24 08:32:36;;;;;;;43.30;18.40;;;7.50;99.90;;;;;;5009227;28;20253;-37
2021/11/24 08:35:05;;;;;;;37.33;18.57;;;7.80;99.90;;;;;;5025329;28;20557;-37
2021/11/24 08:37:31;;;;;;;37.27;18.50;;;7.90;99.90;;;;;;5028778;28;20199;-37
2021/11/24 08:39:57;;;;;;;39.77;18.33;;;7.70;99.90;;;;;;5023304;28;20444;-37
2021/11/24 08:42:26;;;;;;;40.77;20.07;;;7.70;99.90;;;;;;5015689;28;20469;-37
2021/11/24 08:44:52;;;;;;;42.03;20.00;;;7.70;99.90;;;;;;5018075;28;20421;-37
2021/11/24 08:47:18;;;;;;;50.13;21.30;;;7.70;99.90;;;;;;5028750;28;20418;-37
2021/11/24 08:49:44;;;;;;;37.50;18.63;;;7.90;99.90;;;;;;5020971;28;20410;-37
2021/11/24 08:52:10;;;;;;;33.47;18.73;;;7.80;99.90;;;;;;5010141;28;20432;-37
2021/11/24 08:54:37;;;;;;;48.17;20.80;;;7.80;99.90;;;;;;5023907;28;20549;-37
2021/11/24 08:57:04;;;;;;;49.70;21.23;;;8.00;99.90;;;;;;5008834;28;20206;-37
2021/11/24 08:59:29;;;;;;;45.50;21.50;;;7.80;99.90;;;;;;5014532;28;20687;-37
2021/11/24 09:01:55;;;;;;;47.47;24.17;;;7.80;99.90;;;;;;5013602;28;20560;-37
2021/11/24 09:04:22;;;;;;;58.63;22.30;;;8.00;99.90;;;;;;5007326;28;20191;-37
2021/11/24 09:06:47;;;;;;;40.80;21.17;;;7.60;99.90;;;;;;5012055;28;20441;-37
2021/11/24 09:09:13;;;;;;;46.23;20.50;;;7.80;99.90;;;;;;5021480;28;20414;-37
2021/11/24 09:11:39;;;;;;;44.63;20.70;;;7.70;99.90;;;;;;5012655;28;20187;-37
2021/11/24 09:14:05;;;;;;;46.00;20.83;;;7.80;99.90;;;;;;5009117;28;20194;-37
2021/11/24 09:16:31;;;;;;;38.67;19.63;;;7.90;99.90;;;;;;5013618;28;20603;-37
2021/11/24 09:18:57;;;;;;;37.87;18.67;;;7.80;99.90;;;;;;5008561;28;20422;-37
2021/11/24 09:21:24;;;;;;;41.97;19.90;;;7.70;99.90;;;;;;5012059;28;20469;-37
2021/11/24 09:23:51;;;;;;;42.47;20.40;;;7.90;99.90;;;;;;5016650;28;20595;-37
2021/11/24 09:28:43;;;;;;;40.77;20.20;;;8.00;99.90;;;;;;5008457;28;20825;-37
2021/11/24 09:31:09;;;;;;;44.40;19.83;;;7.80;99.90;;;;;;5010343;28;20186;-37
2021/11/24 09:33:37;;;;;;;43.40;19.50;;;7.90;99.90;;;;;;5007710;28;20428;-37
2021/11/24 09:36:03;;;;;;;41.30;21.37;;;8.20;99.90;;;;;;5009384;28;20503;-37
2021/11/24 09:38:30;;;;;;;40.07;20.60;;;8.10;99.90;;;;;;5018612;28;20410;-37
2021/11/24 09:41:05;;;;;;;38.63;19.30;;;8.10;99.90;;;;;;5018609;28;20491;-37
2021/11/24 09:43:35;;;;;;;36.93;17.97;;;8.10;99.90;;;;;;5007556;28;20429;-37
2021/11/24 09:46:02;;;;;;;44.90;18.70;;;8.10;99.90;;;;;;5021662;28;20479;-37
2021/11/24 09:48:28;;;;;;;39.13;19.57;;;8.10;99.90;;;;;;5019399;28;20453;-37
2021/11/24 09:50:55;;;;;;;38.40;19.60;;;8.30;99.90;;;;;;5009735;28;20431;-37
2021/11/24 09:53:22;;;;;;;35.47;18.93;;;8.30;99.90;;;;;;5008021;28;20780;-37
2021/11/24 09:55:49;;;;;;;35.93;18.80;;;8.40;99.90;;;;;;5017513;28;20480;-37
2021/11/24 09:58:15;;;;;;;38.80;19.47;;;8.30;99.90;;;;;;5008042;28;20533;-37
2021/11/24 10:00:41;;;;;;;32.30;17.73;;;8.50;99.90;;;;;;5014063;28;20418;-37
2021/11/24 10:03:08;;;;;;;42.60;19.47;;;8.40;99.90;;;;;;5005023;28;20503;-37
2021/11/24 10:05:35;;;;;;;38.73;20.10;;;8.20;99.90;;;;;;5007714;28;20789;-37
2021/11/24 10:08:02;;;;;;;37.80;19.17;;;8.50;99.90;;;;;;5016604;28;20995;-37
2021/11/24 10:10:28;;;;;;;38.37;19.87;;;8.40;99.90;;;;;;5017762;28;20419;-37
2021/11/24 10:12:54;;;;;;;37.90;18.60;;;8.60;99.90;;;;;;5007366;28;20496;-37
2021/11/24 10:15:41;;;;;;;28.03;16.27;;;8.40;99.90;;;;;;5010299;28;20434;-37
2021/11/24 10:18:23;;;;;;;33.37;18.30;;;8.50;99.90;;;;;;5008078;28;20430;-37
2021/11/24 10:20:54;;;;;;;38.77;19.57;;;8.60;99.90;;;;;;5006789;28;20480;-37
2021/11/24 10:23:31;;;;;;;40.90;19.10;;;8.40;99.90;;;;;;5012717;28;20797;-37
2021/11/24 10:26:27;;;;;;;36.80;18.60;;;8.60;99.90;;;;;;5014592;28;20410;-37
2021/11/24 10:29:17;;;;;;;33.87;19.30;;;8.60;99.90;;;;;;5007805;28;20418;-37
2021/11/24 10:31:51;;;;;;;32.57;17.90;;;8.80;99.90;;;;;;5018645;28;20997;-37
2021/11/24 10:34:19;;;;;;;33.80;19.00;;;8.60;99.90;;;;;;5006869;28;21065;-37
2021/11/24 10:37:06;;;;;;;34.80;18.40;;;8.80;99.90;;;;;;5010784;28;20503;-37
2021/11/24 10:39:40;;;;;;;27.67;15.63;;;8.70;99.90;;;;;;5011580;28;20418;-37
2021/11/24 10:42:08;;;;;;;27.33;14.43;;;9.00;99.90;;;;;;5011060;28;20529;-37
2021/11/24 10:44:35;;;;;;;27.53;16.10;;;9.00;99.90;;;;;;5011142;28;20911;-37
2021/11/24 10:47:03;;;;;;;33.30;17.10;;;8.90;99.90;;;;;;5014380;28;20526;-37
2021/11/24 10:49:32;;;;;;;34.03;16.73;;;8.90;99.90;;;;;;5020883;28;20509;-37
2021/11/24 10:51:57;;;;;;;34.43;18.53;;;8.70;99.90;;;;;;5013092;28;20582;-37
2021/11/24 10:54:23;;;;;;;34.33;17.43;;;8.80;99.90;;;;;;5020289;28;20504;-37
2021/11/24 10:57:06;;;;;;;30.60;17.90;;;8.90;99.90;;;;;;5025446;28;20198;-37
2021/11/24 10:59:37;;;;;;;28.70;17.27;;;8.80;99.90;;;;;;5007160;28;20198;-37
2021/11/24 11:02:21;;;;;;;31.10;16.97;;;8.90;99.90;;;;;;5010629;28;20466;-37
2021/11/24 11:05:05;;;;;;;33.40;16.70;;;8.70;99.90;;;;;;5005596;28;20465;-37
2021/11/24 11:07:37;;;;;;;28.33;14.97;;;8.90;99.90;;;;;;5014653;28;20479;-37
2021/11/24 11:10:05;;;;;;;26.40;14.73;;;8.90;99.90;;;;;;5023136;28;20421;-37
2021/11/24 11:12:33;;;;;;;24.03;14.43;;;8.90;99.90;;;;;;5015433;28;20454;-37
2021/11/24 11:15:16;;;;;;;24.57;12.87;;;9.00;99.90;;;;;;5007005;28;20713;-37
2021/11/24 11:17:57;;;;;;;18.53;11.37;;;9.00;99.90;;;;;;5007545;28;20426;-37
2021/11/24 11:20:26;;;;;;;19.63;12.30;;;9.20;99.90;;;;;;5006842;28;20438;-38
2021/11/24 11:23:07;;;;;;;18.70;11.13;;;9.10;99.90;;;;;;5009801;28;20828;-37
2021/11/24 11:25:38;;;;;;;20.50;10.27;;;9.00;99.90;;;;;;5018476;28;20416;-37
2021/11/24 11:28:04;;;;;;;14.60;9.77;;;8.90;99.90;;;;;;5007240;28;20419;-37
2021/11/24 11:30:32;;;;;;;14.23;9.00;;;9.10;99.90;;;;;;5012053;28;20542;-37
2021/11/24 11:32:59;;;;;;;13.93;9.00;;;9.10;99.90;;;;;;5013219;28;20604;-37
2021/11/24 11:35:25;;;;;;;15.97;9.07;;;9.30;99.90;;;;;;5010507;28;20811;-37
2021/11/24 11:37:52;;;;;;;15.80;9.87;;;9.40;99.90;;;;;;5016678;28;20441;-37
2021/11/24 11:40:18;;;;;;;15.40;8.57;;;9.20;99.90;;;;;;5022216;28;20427;-37
2021/11/24 11:42:45;;;;;;;12.17;8.97;;;9.50;99.90;;;;;;5013131;28;20469;-37
2021/11/24 11:45:15;;;;;;;16.80;9.77;;;9.30;99.90;;;;;;5020616;28;20413;-37
2021/11/24 11:47:42;;;;;;;19.77;10.27;;;9.30;99.90;;;;;;5016529;28;20448;-37
2021/11/24 11:50:08;;;;;;;18.00;9.60;;;9.30;99.90;;;;;;5018263;28;20700;-37
2021/11/24 11:52:34;;;;;;;15.67;10.60;;;9.20;99.90;;;;;;5015270;28;20445;-37
2021/11/24 11:55:35;;;;;;;18.00;10.77;;;9.30;99.90;;;;;;5028218;28;20482;-37
2021/11/24 11:58:01;;;;;;;17.60;10.97;;;9.30;99.90;;;;;;4977875;28;20712;-37
2021/11/24 12:00:31;;;;;;;18.53;11.77;;;9.20;99.90;;;;;;5000938;28;20430;-37
2021/11/24 12:02:58;;;;;;;14.43;9.33;;;9.30;99.90;;;;;;5008470;28;20214;-37
2021/11/24 12:05:24;;;;;;;15.23;9.07;;;9.20;99.90;;;;;;5008505;28;20429;-37
2021/11/24 12:08:06;;;;;;;13.27;8.17;;;9.20;99.90;;;;;;5011482;28;20434;-37
2021/11/24 12:10:56;;;;;;;12.73;8.47;;;9.10;99.90;;;;;;5019183;28;20414;-37
2021/11/24 12:13:40;;;;;;;14.90;9.00;;;9.10;99.90;;;;;;5024604;28;20469;-37
2021/11/24 12:16:41;;;;;;;12.90;8.33;;;9.10;99.90;;;;;;5029357;28;20515;-37
2021/11/24 12:19:17;;;;;;;12.97;8.07;;;9.10;99.90;;;;;;5010309;28;20675;-37
2021/11/24 12:21:53;;;;;;;12.90;9.30;;;9.20;99.90;;;;;;5009727;28;20895;-37
2021/11/24 12:24:37;;;;;;;12.80;7.40;;;9.20;99.90;;;;;;5009697;28;20442;-37
2021/11/24 12:27:02;;;;;;;11.60;7.53;;;9.30;99.90;;;;;;5019428;28;20426;-37
2021/11/24 12:29:49;;;;;;;8.07;5.50;;;9.10;99.90;;;;;;5002815;28;21045;-37
2021/11/24 12:32:16;;;;;;;5.83;4.60;;;8.90;99.90;;;;;;5013470;28;20194;-37
2021/11/24 12:34:51;;;;;;;9.17;4.60;;;8.90;99.90;;;;;;5008781;28;20509;-37
2021/11/24 12:37:22;;;;;;;5.43;2.90;;;9.00;99.90;;;;;;5011241;28;20440;-37
2021/11/24 12:39:48;;;;;;;4.00;2.80;;;8.90;99.90;;;;;;5018032;28;20760;-37
2021/11/24 12:42:14;;;;;;;3.80;2.40;;;8.90;99.90;;;;;;5018042;28;20453;-37